createdAt,value
2017-10-04T12:50:21.057Z,21.11
2017-10-04T12:50:39.837Z,21.2
2017-10-04T12:50:59.585Z,21.23
2017-10-04T12:51:18.786Z,21.3
2017-10-04T12:51:36.719Z,21.23
2017-10-04T12:52:08.936Z,21.19
2017-10-04T12:52:27.916Z,21.24
2017-10-04T12:52:46.378Z,21.27
2017-10-04T12:53:05.939Z,21.21
2017-10-04T12:53:24.946Z,21.21
2017-10-04T12:53:44.788Z,21.26
2017-10-04T12:54:04.121Z,21.23
2017-10-04T12:54:23.380Z,21.16
2017-10-04T12:54:42.893Z,21.27
2017-10-04T12:55:01.942Z,21.21
2017-10-04T12:55:21.002Z,21.16
2017-10-04T12:55:40.406Z,21.02
2017-10-04T12:55:58.567Z,21.06
2017-10-04T12:56:30.863Z,20.99
2017-10-04T12:56:49.895Z,20.89
2017-10-04T12:57:08.371Z,20.98
2017-10-04T12:57:27.176Z,21.05
2017-10-04T12:57:45.623Z,21.11
2017-10-04T12:58:04.418Z,21.23
2017-10-04T12:58:23.020Z,21.31
2017-10-04T12:58:44.949Z,21.31
2017-10-04T12:59:05.540Z,21.31
2017-10-04T12:59:23.874Z,21.26
2017-10-04T12:59:42.343Z,21.39
2017-10-04T13:00:01.090Z,21.51
2017-10-04T13:00:33.835Z,21.61
2017-10-04T13:00:53.642Z,21.72
2017-10-04T13:01:26.390Z,21.69
2017-10-04T13:01:45.925Z,21.78
2017-10-04T13:02:05.793Z,21.79
2017-10-04T13:02:24.222Z,21.81
2017-10-04T13:02:42.979Z,21.86
2017-10-04T13:03:01.685Z,21.79
2017-10-04T13:03:21.015Z,21.79
2017-10-04T13:03:40.585Z,21.82
2017-10-04T13:04:12.810Z,21.79
2017-10-04T13:04:31.912Z,21.89
2017-10-04T13:04:51.679Z,21.79
2017-10-04T13:05:09.920Z,21.59
2017-10-04T13:05:29.672Z,21.49
2017-10-04T13:05:48.782Z,21.48
2017-10-04T13:06:09.432Z,21.46
2017-10-04T13:06:28.246Z,21.41
2017-10-04T13:06:47.267Z,21.45
2017-10-04T13:07:06.736Z,21.54
2017-10-04T13:07:40.829Z,21.53
2017-10-04T13:08:00.297Z,21.6
2017-10-04T13:08:18.735Z,21.6
2017-10-04T13:08:51.601Z,21.67
2017-10-04T13:09:24.774Z,21.63
2017-10-04T13:09:44.130Z,21.42
2017-10-04T13:10:05.562Z,21.42
2017-10-04T13:10:24.455Z,21.56
2017-10-04T13:10:43.661Z,21.7
2017-10-04T13:11:17.913Z,22.01
2017-10-04T13:11:36.866Z,22.04
2017-10-04T13:11:56.383Z,22.01
2017-10-04T13:12:17.678Z,21.76
2017-10-04T13:12:36.422Z,21.75
2017-10-04T13:12:55.463Z,22.01
2017-10-04T13:13:14.302Z,22.13
2017-10-04T13:13:33.831Z,22.24
2017-10-04T13:13:53.133Z,22.28
2017-10-04T13:14:11.943Z,22.39
2017-10-04T13:14:30.913Z,22.34
2017-10-04T13:14:49.424Z,22.31
2017-10-04T13:15:07.875Z,22.34
2017-10-04T13:15:40.834Z,22.54
2017-10-04T13:15:59.118Z,22.69
2017-10-04T13:16:17.452Z,22.72
2017-10-04T13:16:35.820Z,22.75
2017-10-04T13:16:54.144Z,22.68
2017-10-04T13:17:13.018Z,22.39
2017-10-04T13:17:31.336Z,22.37
2017-10-04T13:17:49.613Z,22.32
2017-10-04T13:18:22.904Z,22.32
2017-10-04T13:18:42.372Z,22.37
2017-10-04T13:19:01.586Z,22.38
2017-10-04T13:19:24.145Z,22.46
2017-10-04T13:19:47.382Z,22.54
2017-10-04T13:20:09.188Z,22.57
2017-10-04T13:20:30.626Z,22.46
2017-10-04T13:20:50.801Z,22.49
2017-10-04T13:21:09.727Z,22.41
2017-10-04T13:21:42.470Z,22.46
2017-10-04T13:22:02.202Z,22.42
2017-10-04T13:22:20.731Z,22.46
2017-10-04T13:22:54.038Z,22.26
2017-10-04T13:23:47.052Z,22.13
2017-10-04T13:24:05.644Z,22.15
2017-10-04T13:24:24.194Z,21.92
2017-10-04T13:24:43.505Z,22.02
2017-10-04T13:25:50.778Z,21.84
2017-10-04T13:26:24.086Z,21.97
2017-10-04T13:26:43.266Z,22.02
2017-10-04T13:27:01.002Z,22.07
2017-10-04T13:27:20.229Z,22.1
2017-10-04T13:27:39.250Z,21.91
2017-10-04T13:27:59.130Z,22.04
2017-10-04T13:28:18.495Z,22.01
2017-10-04T13:28:38.087Z,22.15
2017-10-04T13:29:10.982Z,22.32
2017-10-04T13:29:43.850Z,22.17
2017-10-04T13:30:03.416Z,22.12
2017-10-04T13:30:21.894Z,21.98
2017-10-04T13:30:40.964Z,21.79
2017-10-04T13:31:00.855Z,21.85
2017-10-04T13:31:20.350Z,21.85
2017-10-04T13:31:38.645Z,21.89
2017-10-04T13:31:57.186Z,21.79
2017-10-04T13:32:16.166Z,21.79
2017-10-04T13:32:33.889Z,21.79
2017-10-04T13:32:52.899Z,21.82
2017-10-04T13:33:25.326Z,21.91
2017-10-04T13:33:44.349Z,21.84
2017-10-04T13:34:02.628Z,21.91
2017-10-04T13:34:21.681Z,21.89
2017-10-04T13:34:54.952Z,22
2017-10-04T13:35:13.420Z,21.94
2017-10-04T13:35:31.899Z,21.95
2017-10-04T13:35:50.877Z,22.1
2017-10-04T13:36:09.346Z,22.12
2017-10-04T13:36:27.801Z,22.16
2017-10-04T13:36:46.622Z,22.13
2017-10-04T13:37:05.944Z,22.07
2017-10-04T13:37:25.327Z,21.95
2017-10-04T13:37:44.137Z,21.89
2017-10-04T13:38:03.040Z,21.97
2017-10-04T13:38:22.079Z,22.08
2017-10-04T13:38:40.453Z,22.22
2017-10-04T13:39:00.491Z,22.24
2017-10-04T13:39:20.241Z,22.32
2017-10-04T13:39:39.592Z,22.31
2017-10-04T13:39:58.492Z,22.32
2017-10-04T13:40:19.916Z,22.3
2017-10-04T13:41:09.569Z,22.42
2017-10-04T13:41:28.351Z,22.16
2017-10-04T13:41:46.684Z,22.05
2017-10-04T13:42:20.697Z,22.07
2017-10-04T13:43:13.239Z,21.79
2017-10-04T13:43:46.218Z,21.76
2017-10-04T13:44:06.162Z,21.74
2017-10-04T13:44:58.217Z,22
2017-10-04T13:45:16.695Z,21.98
2017-10-04T13:45:50.087Z,22.02
2017-10-04T13:46:08.935Z,21.89
2017-10-04T13:46:41.911Z,21.66
2017-10-04T13:47:00.334Z,21.61
2017-10-04T13:47:18.864Z,21.7
2017-10-04T13:47:37.893Z,21.94
2017-10-04T13:47:56.954Z,21.97
2017-10-04T13:48:16.153Z,21.81
2017-10-04T13:48:48.488Z,21.92
2017-10-04T13:49:08.786Z,21.86
2017-10-04T13:49:27.809Z,21.82
2017-10-04T13:49:46.740Z,21.95
2017-10-04T13:50:20.470Z,22.08
2017-10-04T13:50:44.424Z,22.02
2017-10-04T13:51:08.318Z,21.91
2017-10-04T13:52:00.266Z,22.17
2017-10-04T13:52:18.742Z,22.22
2017-10-04T13:52:51.530Z,22.31
2017-10-04T13:53:09.812Z,22.16
2017-10-04T13:53:43.212Z,22.23
2017-10-04T13:54:02.068Z,22.35
2017-10-04T13:54:21.558Z,22.46
2017-10-04T13:54:40.656Z,22.56
2017-10-04T13:54:59.654Z,22.62
2017-10-04T13:55:19.223Z,22.63
2017-10-04T13:55:51.637Z,22.86
2017-10-04T13:56:24.983Z,22.69
2017-10-04T13:56:43.942Z,22.67
2017-10-04T13:57:17.730Z,22.65
2017-10-04T13:57:38.852Z,22.72
2017-10-04T13:57:57.682Z,22.78
2017-10-04T13:58:30.999Z,22.97
2017-10-04T13:58:49.378Z,22.94
2017-10-04T13:59:08.953Z,22.86
2017-10-04T13:59:42.221Z,22.69
2017-10-04T14:00:01.529Z,22.62
2017-10-04T14:00:20.121Z,22.78
2017-10-04T14:00:39.193Z,22.77
2017-10-04T14:01:12.720Z,22.77
2017-10-04T14:01:32.967Z,22.74
2017-10-04T14:02:08.956Z,22.57
2017-10-04T14:02:27.536Z,22.31
2017-10-04T14:02:45.648Z,22.19
2017-10-04T14:03:18.429Z,22.26
2017-10-04T14:03:36.771Z,22.26
2017-10-04T14:03:54.724Z,22.24
2017-10-04T14:04:14.122Z,22.17
2017-10-04T14:04:33.226Z,22.02
2017-10-04T14:04:52.704Z,22.1
2017-10-04T14:05:26.089Z,22.12
2017-10-04T14:05:45.941Z,22.16
2017-10-04T14:06:04.862Z,22.32
2017-10-04T14:06:24.293Z,22.35
2017-10-04T14:06:42.205Z,22.3
2017-10-04T14:07:14.035Z,22.37
2017-10-04T14:07:33.404Z,22.32
2017-10-04T14:07:54.074Z,22.34
2017-10-04T14:08:27.347Z,22.41
2017-10-04T14:08:47.108Z,22.47
2017-10-04T14:09:06.031Z,22.38
2017-10-04T14:09:25.531Z,22.49
2017-10-04T14:09:59.766Z,22.49
2017-10-04T14:10:19.220Z,22.46
2017-10-04T14:11:24.367Z,22.47
2017-10-04T14:11:44.548Z,22.5
2017-10-04T14:12:18.106Z,22.46
2017-10-04T14:12:36.986Z,22.52
2017-10-04T14:12:56.368Z,22.67
2017-10-04T14:13:15.029Z,22.68
2017-10-04T14:13:34.368Z,22.68
2017-10-04T14:13:54.234Z,22.69
2017-10-04T14:14:13.194Z,22.77
2017-10-04T14:14:46.083Z,22.83
2017-10-04T14:15:18.842Z,22.93
2017-10-04T14:15:37.873Z,22.77
2017-10-04T14:15:56.453Z,22.68
2017-10-04T14:16:48.782Z,22.62
2017-10-04T14:17:41.071Z,22.92
2017-10-04T14:18:13.369Z,22.97
2017-10-04T14:18:32.320Z,23.05
2017-10-04T14:18:50.578Z,23.11
2017-10-04T14:19:09.432Z,23.11
2017-10-04T14:19:28.335Z,23.15
2017-10-04T14:19:47.189Z,23.29
2017-10-04T14:20:06.599Z,23.33
2017-10-04T14:20:40.165Z,23.4
2017-10-04T14:20:58.627Z,23.34
2017-10-04T14:21:17.903Z,23.34
2017-10-04T14:21:37.029Z,23.34
2017-10-04T14:21:56.146Z,23.43
2017-10-04T14:22:28.377Z,23.38
2017-10-04T14:22:48.144Z,23.42
2017-10-04T14:23:07.585Z,23.29
2017-10-04T14:23:27.626Z,23.2
2017-10-04T14:23:46.748Z,23.27
2017-10-04T14:24:06.281Z,23.43
2017-10-04T14:24:25.831Z,23.48
2017-10-04T14:24:44.729Z,23.46
2017-10-04T14:25:18.032Z,23.48
2017-10-04T14:25:37.395Z,23.6
2017-10-04T14:25:56.411Z,23.46
2017-10-04T14:26:15.042Z,23.61
2017-10-04T14:26:47.917Z,23.33
2017-10-04T14:27:21.621Z,23.11
2017-10-04T14:27:41.162Z,23.18
2017-10-04T14:28:02.970Z,23.18
2017-10-04T14:28:28.979Z,23.38
2017-10-04T14:28:48.868Z,23.52
2017-10-04T14:29:11.329Z,23.31
2017-10-04T14:29:31.703Z,23.61
2017-10-04T14:29:52.154Z,23.67
2017-10-04T14:30:24.960Z,23.61
2017-10-04T14:30:44.284Z,23.63
2017-10-04T14:31:36.763Z,23.93
2017-10-04T14:32:29.016Z,23.71
2017-10-04T14:32:48.065Z,23.56
2017-10-04T14:33:20.854Z,23.43
2017-10-04T14:33:53.877Z,23.48
2017-10-04T14:34:26.852Z,23.61
2017-10-04T14:34:46.179Z,23.53
2017-10-04T14:35:19.107Z,23.78
2017-10-04T14:35:51.669Z,23.85
2017-10-04T14:36:24.441Z,23.82
2017-10-04T14:36:43.716Z,23.92
2017-10-04T14:37:02.729Z,23.97
2017-10-04T14:37:22.400Z,24.01
2017-10-04T14:37:43.900Z,24.27
2017-10-04T14:38:07.920Z,24.48
2017-10-04T14:38:32.861Z,24.35
2017-10-04T14:38:54.722Z,24.32
2017-10-04T14:39:27.864Z,24.3
2017-10-04T14:39:47.206Z,24.27
2017-10-04T14:40:06.767Z,24.41
2017-10-04T14:40:25.803Z,24.1
2017-10-04T14:40:44.402Z,24.02
2017-10-04T14:41:04.232Z,23.98
2017-10-04T14:41:23.914Z,24.01
2017-10-04T14:41:59.688Z,23.95
2017-10-04T14:42:32.942Z,24.05
2017-10-04T14:43:06.128Z,24.1
2017-10-04T14:43:38.454Z,23.97
2017-10-04T14:43:57.331Z,23.93
2017-10-04T14:44:48.694Z,24.02
2017-10-04T14:45:08.439Z,24.04
2017-10-04T14:46:00.294Z,23.92
2017-10-04T14:46:32.790Z,23.95
2017-10-04T14:47:06.311Z,24.08
2017-10-04T14:47:25.393Z,24.19
2017-10-04T14:47:43.874Z,24.47
2017-10-04T14:48:02.747Z,24.76
2017-10-04T14:48:22.211Z,24.9
2017-10-04T14:48:41.885Z,24.9
2017-10-04T14:49:00.716Z,24.69
2017-10-04T14:49:18.994Z,24.71
2017-10-04T14:49:51.889Z,24.56
2017-10-04T14:50:24.862Z,24.63
2017-10-04T14:50:43.868Z,24.42
2017-10-04T14:51:02.098Z,24.5
2017-10-04T14:51:20.859Z,24.38
2017-10-04T14:51:41.698Z,24.34
2017-10-04T14:52:01.197Z,24.42
2017-10-04T14:52:34.170Z,24.52
2017-10-04T14:52:54.400Z,24.76
2017-10-04T14:53:12.876Z,24.83
2017-10-04T14:53:32.193Z,24.9
2017-10-04T14:54:05.358Z,25.05
2017-10-04T14:54:23.961Z,25.22
2017-10-04T14:54:56.839Z,25.47
2017-10-04T14:55:14.591Z,25.49
2017-10-04T14:55:33.215Z,25.5
2017-10-04T14:55:56.403Z,25.56
2017-10-04T14:56:30.139Z,25.37
2017-10-04T14:56:55.802Z,25.64
2017-10-04T14:57:15.096Z,25.75
2017-10-04T14:57:34.414Z,25.86
2017-10-04T14:57:53.920Z,25.47
2017-10-04T14:58:13.683Z,24.94
2017-10-04T14:58:46.449Z,24.71
2017-10-04T14:59:18.821Z,24.94
2017-10-04T14:59:37.114Z,24.83
2017-10-04T14:59:56.698Z,24.67
2017-10-04T15:00:29.683Z,24.71
2017-10-04T15:00:48.913Z,24.45
2017-10-04T15:01:08.209Z,24.56
2017-10-04T15:01:27.902Z,24.69
2017-10-04T15:01:46.958Z,24.69
2017-10-04T15:02:06.092Z,24.73
2017-10-04T15:02:25.695Z,24.73
2017-10-04T15:02:45.600Z,24.71
2017-10-04T15:03:06.083Z,24.79
2017-10-04T15:03:27.683Z,24.67
2017-10-04T15:03:48.477Z,24.56
2017-10-04T15:04:22.875Z,24.78
2017-10-04T15:04:44.266Z,24.83
2017-10-04T15:05:05.882Z,25.08
2017-10-04T15:05:58.917Z,24.97
2017-10-04T15:06:17.503Z,24.9
2017-10-04T15:06:37.130Z,25.01
2017-10-04T15:06:56.612Z,25.25
2017-10-04T15:07:16.388Z,25.42
2017-10-04T15:07:36.413Z,25.38
2017-10-04T15:07:56.168Z,25.49
2017-10-04T15:08:30.244Z,25.57
2017-10-04T15:08:49.588Z,25.67
2017-10-04T15:09:23.853Z,25.97
2017-10-04T15:09:43.759Z,26.04
2017-10-04T15:10:15.879Z,25.93
2017-10-04T15:10:34.334Z,25.78
2017-10-04T15:10:56.466Z,25.72
2017-10-04T15:11:30.151Z,25.56
2017-10-04T15:11:50.335Z,25.62
2017-10-04T15:12:10.932Z,25.6
2017-10-04T15:12:31.815Z,25.57
2017-10-04T15:12:51.569Z,25.55
2017-10-04T15:13:12.342Z,25.71
2017-10-04T15:13:32.752Z,25.83
2017-10-04T15:13:51.913Z,25.87
2017-10-04T15:14:26.870Z,25.56
2017-10-04T15:14:46.798Z,25.32
2017-10-04T15:15:07.182Z,25.55
2017-10-04T15:15:26.661Z,25.59
2017-10-04T15:15:45.976Z,25.35
2017-10-04T15:16:06.336Z,25.52
2017-10-04T15:16:26.952Z,25.31
2017-10-04T15:16:47.310Z,25.28
2017-10-04T15:17:05.571Z,25.08
2017-10-04T15:17:24.307Z,25.01
2017-10-04T15:17:43.675Z,25
2017-10-04T15:18:16.817Z,25.23
2017-10-04T15:18:36.493Z,25.1
2017-10-04T15:18:55.322Z,25.09
2017-10-04T15:19:14.421Z,25.16
2017-10-04T15:19:33.986Z,25.25
2017-10-04T15:20:06.903Z,25.41
2017-10-04T15:20:26.662Z,25.35
2017-10-04T15:21:32.756Z,25.6
2017-10-04T15:21:52.478Z,25.7
2017-10-04T15:22:10.577Z,25.65
2017-10-04T15:22:30.345Z,25.59
2017-10-04T15:22:50.103Z,25.82
2017-10-04T15:23:09.622Z,25.86
2017-10-04T15:23:28.057Z,26.05
2017-10-04T15:23:46.295Z,26.16
2017-10-04T15:24:03.711Z,26.21
2017-10-04T15:24:23.082Z,26.09
2017-10-04T15:24:41.358Z,26.2
2017-10-04T15:25:00.306Z,26.39
2017-10-04T15:25:19.097Z,26.53
2017-10-04T15:25:51.896Z,26.35
2017-10-04T15:26:11.637Z,26.21
2017-10-04T15:26:44.977Z,26.31
2017-10-04T15:27:04.183Z,26.39
2017-10-04T15:27:24.560Z,26.11
2017-10-04T15:28:19.199Z,26.09
2017-10-04T15:28:37.420Z,25.55
2017-10-04T15:28:56.183Z,25.52
2017-10-04T15:29:28.473Z,26.01
2017-10-04T15:29:47.248Z,25.59
2017-10-04T15:30:05.696Z,25.55
2017-10-04T15:30:24.798Z,25.89
2017-10-04T15:30:43.869Z,25.57
2017-10-04T15:31:03.100Z,25.34
2017-10-04T15:31:22.474Z,25.08
2017-10-04T15:31:41.644Z,24.78
2017-10-04T15:32:14.934Z,24.75
2017-10-04T15:32:34.702Z,24.75
2017-10-04T15:33:08.312Z,24.73
2017-10-04T15:33:42.143Z,24.83
2017-10-04T15:34:16.323Z,25
2017-10-04T15:34:37.347Z,24.88
2017-10-04T15:34:55.964Z,24.83
2017-10-04T15:35:15.800Z,24.8
2017-10-04T15:35:34.695Z,24.94
2017-10-04T15:35:53.326Z,24.9
2017-10-04T15:36:11.920Z,25.01
2017-10-04T15:36:29.839Z,25.17
2017-10-04T15:36:48.958Z,25.31
2017-10-04T15:37:08.614Z,25.55
2017-10-04T15:37:27.823Z,25.57
2017-10-04T15:37:46.618Z,25.79
2017-10-04T15:38:05.932Z,25.87
2017-10-04T15:38:25.140Z,26.01
2017-10-04T15:38:58.268Z,26.08
2017-10-04T15:39:16.837Z,26.16
2017-10-04T15:39:36.455Z,26.23
2017-10-04T15:39:55.420Z,26.16
2017-10-04T15:40:13.131Z,26.25
2017-10-04T15:40:32.300Z,26.23
2017-10-04T15:41:05.263Z,25.97
2017-10-04T15:41:36.997Z,25.84
2017-10-04T15:41:56.185Z,25.67
2017-10-04T15:42:28.942Z,25.45
2017-10-04T15:42:48.412Z,25.38
2017-10-04T15:43:06.943Z,25.45
2017-10-04T15:43:26.296Z,25.52
2017-10-04T15:43:44.239Z,25.49
2017-10-04T15:44:02.462Z,25.57
2017-10-04T15:44:22.020Z,25.49
2017-10-04T15:44:40.952Z,25.41
2017-10-04T15:45:02.532Z,25.55
2017-10-04T15:45:24.746Z,25.72
2017-10-04T15:45:48.338Z,25.77
2017-10-04T15:46:08.747Z,25.74
2017-10-04T15:46:27.534Z,25.75
2017-10-04T15:46:46.098Z,25.53
2017-10-04T15:47:06.355Z,25.56
2017-10-04T15:47:25.912Z,25.49
2017-10-04T15:47:45.153Z,25.72
2017-10-04T15:48:03.456Z,25.99
2017-10-04T15:48:22.759Z,25.94
2017-10-04T15:48:55.520Z,26.21
2017-10-04T15:49:14.917Z,26.31
2017-10-04T15:49:34.213Z,26.16
2017-10-04T15:50:07.217Z,26.05
2017-10-04T15:50:25.685Z,26.01
2017-10-04T15:50:59.042Z,26.27
2017-10-04T15:51:18.206Z,26.28
2017-10-04T15:51:37.960Z,26.24
2017-10-04T15:51:56.451Z,26.01
2017-10-04T15:52:15.000Z,25.93
2017-10-04T15:52:34.174Z,25.7
2017-10-04T15:52:53.641Z,26.01
2017-10-04T15:53:12.637Z,26.05
2017-10-04T15:53:45.853Z,26.07
2017-10-04T15:54:05.854Z,26.08
2017-10-04T15:54:25.113Z,26.27
2017-10-04T15:54:58.881Z,26.28
2017-10-04T15:55:17.272Z,26.15
2017-10-04T15:55:36.060Z,26.24
2017-10-04T15:55:54.963Z,26.21
2017-10-04T15:56:14.199Z,26.18
2017-10-04T15:56:33.892Z,26.07
2017-10-04T15:56:53.647Z,26.05
2017-10-04T15:57:12.575Z,26.05
2017-10-04T15:57:31.316Z,26.27
2017-10-04T15:57:50.111Z,26.42
2017-10-04T15:58:09.216Z,26.52
2017-10-04T15:58:28.701Z,26.5
2017-10-04T15:59:02.195Z,26.45
2017-10-04T15:59:34.974Z,26.43
2017-10-04T15:59:53.651Z,26.6
2017-10-04T16:00:13.145Z,26.69
2017-10-04T16:00:32.267Z,26.68
2017-10-04T16:01:25.222Z,27.02
2017-10-04T16:01:58.197Z,27.05
2017-10-04T16:02:30.451Z,26.72
2017-10-04T16:02:49.169Z,26.72
2017-10-04T16:03:08.009Z,26.76
2017-10-04T16:03:40.746Z,26.83
2017-10-04T16:03:59.221Z,27.01
2017-10-04T16:04:18.888Z,27.07
2017-10-04T16:04:37.885Z,27.24
2017-10-04T16:04:56.903Z,27.09
2017-10-04T16:05:29.854Z,27.05
2017-10-04T16:05:48.118Z,26.76
2017-10-04T16:06:07.412Z,26.69
2017-10-04T16:06:59.188Z,26.35
2017-10-04T16:07:32.158Z,25.94
2017-10-04T16:07:50.360Z,25.99
2017-10-04T16:08:09.145Z,25.82
2017-10-04T16:08:28.873Z,25.75
2017-10-04T16:08:46.414Z,25.74
2017-10-04T16:09:05.994Z,25.79
2017-10-04T16:09:39.283Z,26.08
2017-10-04T16:10:10.465Z,26.23
2017-10-04T16:10:29.623Z,26.47
2017-10-04T16:10:47.958Z,26.43
2017-10-04T16:11:20.778Z,26.45
2017-10-04T16:12:46.178Z,27.13
2017-10-04T16:13:04.941Z,27.19
2017-10-04T16:13:24.446Z,27.07
2017-10-04T16:13:44.155Z,27.09
2017-10-04T16:14:19.122Z,27.13
2017-10-04T16:14:39.858Z,27.13
2017-10-04T16:14:59.003Z,27.36
2017-10-04T16:15:17.681Z,27.45
2017-10-04T16:15:35.635Z,27.54
2017-10-04T16:15:55.318Z,27.17
2017-10-04T16:16:27.294Z,27.49
2017-10-04T16:16:46.073Z,27.77
2017-10-04T16:17:06.124Z,27.76
2017-10-04T16:17:25.851Z,27.87
2017-10-04T16:17:58.860Z,28.2
2017-10-04T16:18:17.916Z,28.24
2017-10-04T16:18:35.825Z,28.26
2017-10-04T16:18:54.274Z,28.44
2017-10-04T16:19:12.638Z,28.46
2017-10-04T16:19:32.784Z,28.17
2017-10-04T16:19:52.189Z,28.34
2017-10-04T16:20:11.329Z,27.91
2017-10-04T16:20:30.380Z,27.42
2017-10-04T16:21:03.341Z,27.17
2017-10-04T16:21:36.433Z,27.02
2017-10-04T16:21:55.698Z,27.12
2017-10-04T16:22:15.408Z,26.79
2017-10-04T16:22:34.604Z,26.69
2017-10-04T16:22:55.630Z,26.52
2017-10-04T16:23:15.787Z,26.43
2017-10-04T16:23:49.864Z,26.4
2017-10-04T16:24:22.781Z,26.4
2017-10-04T16:24:41.557Z,26.62
2017-10-04T16:25:33.282Z,26.6
2017-10-04T16:26:05.536Z,26.75
2017-10-04T16:26:24.737Z,26.76
2017-10-04T16:26:57.555Z,26.86
2017-10-04T16:27:16.362Z,26.75
2017-10-04T16:27:36.142Z,26.75
2017-10-04T16:28:07.916Z,26.94
2017-10-04T16:28:27.263Z,26.71
2017-10-04T16:29:00.838Z,26.8
2017-10-04T16:29:20.406Z,26.77
2017-10-04T16:29:54.065Z,26.75
2017-10-04T16:30:13.146Z,26.15
2017-10-04T16:30:31.413Z,26.68
2017-10-04T16:30:49.197Z,26.79
2017-10-04T16:31:09.275Z,27.09
2017-10-04T16:31:27.894Z,27.26
2017-10-04T16:31:46.347Z,26.99
2017-10-04T16:32:04.138Z,27.02
2017-10-04T16:32:22.946Z,26.94
2017-10-04T16:32:43.132Z,26.76
2017-10-04T16:33:03.283Z,26.8
2017-10-04T16:33:22.597Z,26.55
2017-10-04T16:33:41.870Z,26.35
2017-10-04T16:34:01.161Z,26.12
2017-10-04T16:34:19.384Z,26.08
2017-10-04T16:34:37.649Z,26.08
2017-10-04T16:34:56.401Z,26.21
2017-10-04T16:35:14.654Z,26.18
2017-10-04T16:35:33.838Z,26.4
2017-10-04T16:36:06.626Z,26.57
2017-10-04T16:36:24.584Z,26.58
2017-10-04T16:36:43.379Z,26.68
2017-10-04T16:37:02.902Z,26.53
2017-10-04T16:37:36.354Z,26.47
2017-10-04T16:37:55.196Z,26.43
2017-10-04T16:38:14.493Z,26.49
2017-10-04T16:38:33.458Z,26.42
2017-10-04T16:38:52.420Z,26.45
2017-10-04T16:39:11.720Z,26.72
2017-10-04T16:39:31.105Z,26.89
2017-10-04T16:39:50.572Z,26.89
2017-10-04T16:40:08.822Z,26.75
2017-10-04T16:40:27.184Z,26.65
2017-10-04T16:40:46.032Z,26.57
2017-10-04T16:41:04.325Z,26.47
2017-10-04T16:41:22.326Z,26.28
2017-10-04T16:41:41.111Z,26.23
2017-10-04T16:41:59.884Z,26.21
2017-10-04T16:42:33.159Z,26.35
2017-10-04T16:42:52.115Z,26.46
2017-10-04T16:43:10.615Z,26.34
2017-10-04T16:43:29.618Z,26.32
2017-10-04T16:43:47.553Z,26.18
2017-10-04T16:44:05.328Z,26.15
2017-10-04T16:44:24.622Z,25.86
2017-10-04T16:44:44.338Z,25.84
2017-10-04T16:45:03.341Z,25.89
2017-10-04T16:45:22.085Z,25.9
2017-10-04T16:45:41.758Z,25.86
2017-10-04T16:46:01.400Z,25.75
2017-10-04T16:46:20.147Z,25.59
2017-10-04T16:46:38.768Z,25.9
2017-10-04T16:47:11.041Z,26.32
2017-10-04T16:47:29.354Z,26.43
2017-10-04T16:47:48.930Z,26.49
2017-10-04T16:48:06.898Z,26.39
2017-10-04T16:48:40.450Z,26.53
2017-10-04T16:48:59.507Z,26.75
2017-10-04T16:49:17.798Z,26.68
2017-10-04T16:49:37.581Z,26.58
2017-10-04T16:49:56.602Z,26.6
2017-10-04T16:50:14.365Z,26.72
2017-10-04T16:50:46.902Z,26.86
2017-10-04T16:51:19.126Z,27.14
2017-10-04T16:51:38.010Z,27.35
2017-10-04T16:51:56.272Z,27.32
2017-10-04T16:52:14.964Z,27.34
2017-10-04T16:52:33.411Z,27.58
2017-10-04T16:52:51.887Z,27.67
2017-10-04T16:53:25.499Z,27.95
2017-10-04T16:53:44.797Z,27.79
2017-10-04T16:54:17.534Z,27.82
2017-10-04T16:54:36.071Z,27.67
2017-10-04T16:54:55.585Z,27.62
2017-10-04T16:55:14.578Z,27.62
2017-10-04T16:55:33.129Z,27.16
2017-10-04T16:55:52.393Z,27.38
2017-10-04T16:56:11.188Z,27.16
2017-10-04T16:56:30.492Z,27.24
2017-10-04T16:57:22.241Z,26.94
2017-10-04T16:57:41.883Z,27.14
2017-10-04T16:58:00.954Z,27.23
2017-10-04T16:58:34.452Z,27.49
2017-10-04T16:59:26.909Z,27.6
2017-10-04T16:59:45.199Z,27.72
2017-10-04T17:00:18.098Z,27.38
2017-10-04T17:00:36.676Z,27.53
2017-10-04T17:01:09.482Z,27.44
2017-10-04T17:01:29.462Z,27.65
2017-10-04T17:01:48.820Z,27.6
2017-10-04T17:02:08.492Z,27.32
2017-10-04T17:03:01.414Z,27.42
2017-10-04T17:03:33.853Z,27.7
2017-10-04T17:04:06.626Z,27.45
2017-10-04T17:04:26.131Z,27.36
2017-10-04T17:04:58.968Z,27.45
2017-10-04T17:05:18.280Z,27.64
2017-10-04T17:05:36.598Z,27.6
2017-10-04T17:05:55.110Z,27.45
2017-10-04T17:06:27.530Z,27.57
2017-10-04T17:07:18.592Z,27.35
2017-10-04T17:07:37.567Z,27.13
2017-10-04T17:07:56.529Z,27.24
2017-10-04T17:08:49.451Z,27.29
2017-10-04T17:09:08.417Z,27.04
2017-10-04T17:09:40.649Z,27.26
2017-10-04T17:09:59.697Z,27.31
2017-10-04T17:10:18.475Z,27.46
2017-10-04T17:10:37.450Z,27.62
2017-10-04T17:10:55.875Z,27.51
2017-10-04T17:11:29.137Z,27.34
2017-10-04T17:11:48.636Z,27.57
2017-10-04T17:12:07.139Z,27.64
2017-10-04T17:12:26.113Z,27.73
2017-10-04T17:12:44.057Z,28.01
2017-10-04T17:13:03.062Z,28.07
2017-10-04T17:13:22.612Z,28.24
2017-10-04T17:13:42.133Z,28.07
2017-10-04T17:14:00.592Z,27.99
2017-10-04T17:14:20.393Z,28.09
2017-10-04T17:15:13.040Z,27.61
2017-10-04T17:15:31.577Z,27.35
2017-10-04T17:15:50.198Z,27.27
2017-10-04T17:16:09.516Z,27.41
2017-10-04T17:16:27.457Z,27.41
2017-10-04T17:16:47.160Z,27.57
2017-10-04T17:17:06.935Z,27.65
2017-10-04T17:17:40.256Z,27.73
2017-10-04T17:17:59.589Z,27.64
2017-10-04T17:18:33.068Z,27.67
2017-10-04T17:18:52.424Z,27.41
2017-10-04T17:19:47.069Z,27.12
2017-10-04T17:20:06.635Z,27.32
2017-10-04T17:20:25.718Z,27.41
2017-10-04T17:20:45.233Z,27.39
2017-10-04T17:21:04.897Z,27.42
2017-10-04T17:21:38.013Z,27.41
2017-10-04T17:21:58.415Z,27.51
2017-10-04T17:22:17.440Z,27.64
2017-10-04T17:23:08.805Z,27.67
2017-10-04T17:23:41.712Z,27.64
2017-10-04T17:24:01.454Z,27.57
2017-10-04T17:24:35.571Z,27.64
2017-10-04T17:24:54.655Z,27.58
2017-10-04T17:25:13.105Z,27.77
2017-10-04T17:25:46.357Z,27.99
2017-10-04T17:26:19.225Z,27.77
2017-10-04T17:26:38.570Z,27.44
2017-10-04T17:27:12.326Z,27.2
2017-10-04T17:27:30.843Z,27.49
2017-10-04T17:28:03.837Z,27.49
2017-10-04T17:28:22.618Z,27.14
2017-10-04T17:28:40.612Z,27.29
2017-10-04T17:28:59.583Z,27.29
2017-10-04T17:29:17.943Z,27.49
2017-10-04T17:29:37.559Z,27.51
2017-10-04T17:29:56.605Z,27.54
2017-10-04T17:30:15.978Z,27.41
2017-10-04T17:30:34.416Z,27.53
2017-10-04T17:30:52.150Z,27.74
2017-10-04T17:31:11.177Z,27.51
2017-10-04T17:31:29.995Z,27.49
2017-10-04T17:31:49.498Z,27.44
2017-10-04T17:32:09.050Z,27.26
2017-10-04T17:32:27.279Z,27.17
2017-10-04T17:32:46.088Z,27.14
2017-10-04T17:33:19.032Z,27.6
2017-10-04T17:33:38.530Z,27.54
2017-10-04T17:33:57.795Z,27.44
2017-10-04T17:34:30.024Z,27.36
2017-10-04T17:34:49.298Z,27.08
2017-10-04T17:35:08.589Z,27.19
2017-10-04T17:35:27.043Z,27.04
2017-10-04T17:35:46.555Z,27.02
2017-10-04T17:36:06.070Z,27.17
2017-10-04T17:36:24.034Z,27.09
2017-10-04T17:36:43.917Z,27.21
2017-10-04T17:37:02.299Z,27.31
2017-10-04T17:37:35.407Z,27.72
2017-10-04T17:37:55.331Z,27.61
2017-10-04T17:38:14.592Z,27.72
2017-10-04T17:39:06.727Z,26.92
2017-10-04T17:39:25.535Z,26.87
2017-10-04T17:39:44.303Z,26.4
2017-10-04T17:40:18.051Z,26.43
2017-10-04T17:40:37.178Z,26.89
2017-10-04T17:40:56.485Z,26.97
2017-10-04T17:41:14.940Z,27.04
2017-10-04T17:41:48.408Z,26.8
2017-10-04T17:42:20.724Z,27.09
2017-10-04T17:42:40.023Z,27.17
2017-10-04T17:42:58.270Z,27.16
2017-10-04T17:43:17.286Z,27.12
2017-10-04T17:43:36.084Z,27.36
2017-10-04T17:43:54.038Z,27.17
2017-10-04T17:44:12.826Z,27.2
2017-10-04T17:44:46.145Z,27.32
2017-10-04T17:45:04.405Z,27.44
2017-10-04T17:45:23.158Z,27.36
2017-10-04T17:45:42.678Z,27.65
2017-10-04T17:46:02.129Z,26.97
2017-10-04T17:46:21.257Z,26.92
2017-10-04T17:46:39.529Z,26.98
2017-10-04T17:46:57.349Z,26.72
2017-10-04T17:47:16.668Z,26.76
2017-10-04T17:47:35.597Z,26.75
2017-10-04T17:48:09.034Z,27.08
2017-10-04T17:48:28.077Z,27.21
2017-10-04T17:48:46.525Z,27.35
2017-10-04T17:49:05.306Z,27.84
2017-10-04T17:49:24.553Z,27.65
2017-10-04T17:49:44.922Z,27.53
2017-10-04T17:50:02.744Z,27.74
2017-10-04T17:50:21.769Z,27.83
2017-10-04T17:50:40.679Z,27.58